sensor_id;sensor_type;location;lat;lon;timestamp;P1;durP1;ratioP1;P2;durP2;ratioP2
34876;SDS011;21086;44.780;17.194;2023-05-10T00:00:45;9.48;;;4.43;;
34876;SDS011;21086;44.780;17.194;2023-05-10T00:03:12;6.63;;;4.60;;
34876;SDS011;21086;44.780;17.194;2023-05-10T00:05:39;6.50;;;5.20;;
34876;SDS011;21086;44.780;17.194;2023-05-10T00:08:07;10.50;;;5.45;;
34876;SDS011;21086;44.780;17.194;2023-05-10T00:10:34;7.95;;;5.03;;
34876;SDS011;21086;44.780;17.194;2023-05-10T00:13:01;6.05;;;4.70;;
34876;SDS011;21086;44.780;17.194;2023-05-10T00:15:28;6.20;;;4.95;;
34876;SDS011;21086;44.780;17.194;2023-05-10T00:17:56;7.10;;;4.55;;
34876;SDS011;21086;44.780;17.194;2023-05-10T00:20:24;6.95;;;4.68;;
34876;SDS011;21086;44.780;17.194;2023-05-10T00:22:51;7.95;;;4.65;;
34876;SDS011;21086;44.780;17.194;2023-05-10T00:25:18;6.15;;;4.57;;
34876;SDS011;21086;44.780;17.194;2023-05-10T00:27:45;5.50;;;4.40;;
34876;SDS011;21086;44.780;17.194;2023-05-10T00:30:12;4.95;;;4.00;;
34876;SDS011;21086;44.780;17.194;2023-05-10T00:32:40;6.78;;;4.22;;
34876;SDS011;21086;44.780;17.194;2023-05-10T00:35:07;5.20;;;3.97;;
34876;SDS011;21086;44.780;17.194;2023-05-10T00:37:34;6.53;;;3.67;;
34876;SDS011;21086;44.780;17.194;2023-05-10T00:40:01;5.13;;;4.30;;
34876;SDS011;21086;44.780;17.194;2023-05-10T00:42:28;5.75;;;3.90;;
34876;SDS011;21086;44.780;17.194;2023-05-10T00:44:55;5.15;;;3.75;;
34876;SDS011;21086;44.780;17.194;2023-05-10T00:47:22;5.13;;;3.67;;
34876;SDS011;21086;44.780;17.194;2023-05-10T00:49:49;4.70;;;3.58;;
34876;SDS011;21086;44.780;17.194;2023-05-10T00:52:17;6.75;;;4.25;;
34876;SDS011;21086;44.780;17.194;2023-05-10T00:54:44;6.32;;;3.92;;
34876;SDS011;21086;44.780;17.194;2023-05-10T00:57:11;4.45;;;3.55;;
34876;SDS011;21086;44.780;17.194;2023-05-10T00:59:38;9.48;;;3.67;;
34876;SDS011;21086;44.780;17.194;2023-05-10T01:02:06;6.88;;;3.78;;
34876;SDS011;21086;44.780;17.194;2023-05-10T01:04:33;5.25;;;3.50;;
34876;SDS011;21086;44.780;17.194;2023-05-10T01:07:01;5.68;;;4.00;;
34876;SDS011;21086;44.780;17.194;2023-05-10T01:09:28;4.72;;;3.72;;
34876;SDS011;21086;44.780;17.194;2023-05-10T01:11:56;5.45;;;3.90;;
34876;SDS011;21086;44.780;17.194;2023-05-10T01:14:23;6.30;;;4.20;;
34876;SDS011;21086;44.780;17.194;2023-05-10T01:16:52;5.57;;;3.70;;
34876;SDS011;21086;44.780;17.194;2023-05-10T01:19:23;5.13;;;3.30;;
34876;SDS011;21086;44.780;17.194;2023-05-10T01:28:39;3.67;;;3.08;;
34876;SDS011;21086;44.780;17.194;2023-05-10T01:33:59;6.88;;;3.45;;
34876;SDS011;21086;44.780;17.194;2023-05-10T01:36:35;5.55;;;3.10;;
34876;SDS011;21086;44.780;17.194;2023-05-10T01:42:13;3.88;;;3.15;;
34876;SDS011;21086;44.780;17.194;2023-05-10T01:47:58;5.72;;;3.50;;
34876;SDS011;21086;44.780;17.194;2023-05-10T01:50:36;4.68;;;3.40;;
34876;SDS011;21086;44.780;17.194;2023-05-10T01:53:06;5.82;;;3.88;;
34876;SDS011;21086;44.780;17.194;2023-05-10T01:55:38;6.22;;;2.92;;
34876;SDS011;21086;44.780;17.194;2023-05-10T01:58:13;7.28;;;3.78;;
34876;SDS011;21086;44.780;17.194;2023-05-10T02:00:44;4.65;;;3.08;;
34876;SDS011;21086;44.780;17.194;2023-05-10T02:03:12;4.10;;;2.92;;
34876;SDS011;21086;44.780;17.194;2023-05-10T02:05:42;3.58;;;2.80;;
34876;SDS011;21086;44.780;17.194;2023-05-10T02:08:11;4.95;;;3.15;;
34876;SDS011;21086;44.780;17.194;2023-05-10T02:10:39;3.65;;;3.10;;
34876;SDS011;21086;44.780;17.194;2023-05-10T02:13:08;3.33;;;2.85;;
34876;SDS011;21086;44.780;17.194;2023-05-10T02:15:38;8.20;;;3.50;;
34876;SDS011;21086;44.780;17.194;2023-05-10T02:18:07;5.30;;;3.45;;
34876;SDS011;21086;44.780;17.194;2023-05-10T02:20:37;5.22;;;3.55;;
34876;SDS011;21086;44.780;17.194;2023-05-10T02:23:05;4.05;;;3.42;;
34876;SDS011;21086;44.780;17.194;2023-05-10T02:25:34;4.90;;;3.60;;
34876;SDS011;21086;44.780;17.194;2023-05-10T02:28:04;5.85;;;3.80;;
34876;SDS011;21086;44.780;17.194;2023-05-10T02:30:33;3.85;;;3.25;;
34876;SDS011;21086;44.780;17.194;2023-05-10T02:33:01;4.43;;;3.20;;
34876;SDS011;21086;44.780;17.194;2023-05-10T02:35:30;4.30;;;3.25;;
34876;SDS011;21086;44.780;17.194;2023-05-10T02:37:59;4.57;;;3.38;;
34876;SDS011;21086;44.780;17.194;2023-05-10T02:40:27;5.90;;;3.58;;
34876;SDS011;21086;44.780;17.194;2023-05-10T02:42:56;6.53;;;3.83;;
34876;SDS011;21086;44.780;17.194;2023-05-10T02:45:26;4.45;;;3.38;;
34876;SDS011;21086;44.780;17.194;2023-05-10T02:47:56;7.03;;;3.85;;
34876;SDS011;21086;44.780;17.194;2023-05-10T02:50:25;4.53;;;3.58;;
34876;SDS011;21086;44.780;17.194;2023-05-10T02:52:56;7.57;;;3.95;;
34876;SDS011;21086;44.780;17.194;2023-05-10T02:55:31;5.15;;;3.78;;
34876;SDS011;21086;44.780;17.194;2023-05-10T02:58:03;4.63;;;3.83;;
34876;SDS011;21086;44.780;17.194;2023-05-10T03:00:30;4.63;;;3.85;;
34876;SDS011;21086;44.780;17.194;2023-05-10T03:02:58;4.63;;;3.33;;
34876;SDS011;21086;44.780;17.194;2023-05-10T03:05:25;4.03;;;3.42;;
34876;SDS011;21086;44.780;17.194;2023-05-10T03:07:52;5.95;;;3.90;;
34876;SDS011;21086;44.780;17.194;2023-05-10T03:10:19;4.43;;;3.42;;
34876;SDS011;21086;44.780;17.194;2023-05-10T03:16:12;6.68;;;3.63;;
34876;SDS011;21086;44.780;17.194;2023-05-10T03:19:02;5.88;;;3.72;;
34876;SDS011;21086;44.780;17.194;2023-05-10T03:21:35;3.97;;;3.17;;
34876;SDS011;21086;44.780;17.194;2023-05-10T03:24:07;8.18;;;4.00;;
34876;SDS011;21086;44.780;17.194;2023-05-10T03:26:38;6.65;;;4.32;;
34876;SDS011;21086;44.780;17.194;2023-05-10T03:29:06;5.25;;;4.20;;
34876;SDS011;21086;44.780;17.194;2023-05-10T03:31:34;6.80;;;4.20;;
34876;SDS011;21086;44.780;17.194;2023-05-10T03:34:01;6.50;;;3.92;;
34876;SDS011;21086;44.780;17.194;2023-05-10T03:36:28;5.45;;;4.10;;
34876;SDS011;21086;44.780;17.194;2023-05-10T03:38:55;4.30;;;3.70;;
34876;SDS011;21086;44.780;17.194;2023-05-10T03:41:22;5.65;;;3.80;;
34876;SDS011;21086;44.780;17.194;2023-05-10T03:43:50;4.15;;;3.42;;
34876;SDS011;21086;44.780;17.194;2023-05-10T03:46:17;5.93;;;4.10;;
34876;SDS011;21086;44.780;17.194;2023-05-10T03:48:44;5.63;;;4.35;;
34876;SDS011;21086;44.780;17.194;2023-05-10T03:51:10;5.05;;;3.80;;
34876;SDS011;21086;44.780;17.194;2023-05-10T03:53:37;4.55;;;3.45;;
34876;SDS011;21086;44.780;17.194;2023-05-10T03:56:04;5.25;;;4.22;;
34876;SDS011;21086;44.780;17.194;2023-05-10T03:58:34;6.97;;;4.50;;
34876;SDS011;21086;44.780;17.194;2023-05-10T04:01:01;4.10;;;3.67;;
34876;SDS011;21086;44.780;17.194;2023-05-10T04:03:28;5.10;;;3.88;;
34876;SDS011;21086;44.780;17.194;2023-05-10T04:06:01;5.57;;;4.75;;
34876;SDS011;21086;44.780;17.194;2023-05-10T04:08:29;4.82;;;3.78;;
34876;SDS011;21086;44.780;17.194;2023-05-10T04:11:05;4.70;;;3.78;;
34876;SDS011;21086;44.780;17.194;2023-05-10T04:13:34;10.98;;;4.70;;
34876;SDS011;21086;44.780;17.194;2023-05-10T04:16:02;5.30;;;3.88;;
34876;SDS011;21086;44.780;17.194;2023-05-10T04:18:29;11.88;;;4.90;;
34876;SDS011;21086;44.780;17.194;2023-05-10T04:20:56;5.88;;;4.93;;
34876;SDS011;21086;44.780;17.194;2023-05-10T04:23:24;8.02;;;4.75;;
34876;SDS011;21086;44.780;17.194;2023-05-10T04:25:51;8.43;;;4.75;;
34876;SDS011;21086;44.780;17.194;2023-05-10T04:28:18;5.57;;;4.00;;
34876;SDS011;21086;44.780;17.194;2023-05-10T04:30:45;4.45;;;3.83;;
34876;SDS011;21086;44.780;17.194;2023-05-10T04:33:12;6.18;;;4.30;;
34876;SDS011;21086;44.780;17.194;2023-05-10T04:35:41;6.10;;;3.78;;
34876;SDS011;21086;44.780;17.194;2023-05-10T04:38:07;5.97;;;4.03;;
34876;SDS011;21086;44.780;17.194;2023-05-10T04:40:35;5.50;;;4.43;;
34876;SDS011;21086;44.780;17.194;2023-05-10T04:43:02;5.93;;;4.75;;
34876;SDS011;21086;44.780;17.194;2023-05-10T04:45:29;6.28;;;4.70;;
34876;SDS011;21086;44.780;17.194;2023-05-10T04:47:56;5.25;;;4.35;;
34876;SDS011;21086;44.780;17.194;2023-05-10T04:50:23;6.93;;;4.35;;
34876;SDS011;21086;44.780;17.194;2023-05-10T04:52:50;4.80;;;4.03;;
34876;SDS011;21086;44.780;17.194;2023-05-10T04:55:18;4.50;;;3.75;;
34876;SDS011;21086;44.780;17.194;2023-05-10T04:57:45;6.20;;;3.80;;
34876;SDS011;21086;44.780;17.194;2023-05-10T05:00:12;5.25;;;4.40;;
34876;SDS011;21086;44.780;17.194;2023-05-10T05:02:43;5.55;;;4.10;;
34876;SDS011;21086;44.780;17.194;2023-05-10T05:05:12;5.65;;;3.75;;
34876;SDS011;21086;44.780;17.194;2023-05-10T05:07:39;5.40;;;4.18;;
34876;SDS011;21086;44.780;17.194;2023-05-10T05:10:07;5.85;;;4.10;;
34876;SDS011;21086;44.780;17.194;2023-05-10T05:12:34;4.50;;;3.95;;
34876;SDS011;21086;44.780;17.194;2023-05-10T05:15:01;5.82;;;4.18;;
34876;SDS011;21086;44.780;17.194;2023-05-10T05:17:32;5.80;;;4.15;;
34876;SDS011;21086;44.780;17.194;2023-05-10T05:19:59;4.75;;;4.15;;
34876;SDS011;21086;44.780;17.194;2023-05-10T05:22:26;10.55;;;4.07;;
34876;SDS011;21086;44.780;17.194;2023-05-10T05:24:54;5.40;;;4.30;;
34876;SDS011;21086;44.780;17.194;2023-05-10T05:27:22;7.03;;;4.20;;
34876;SDS011;21086;44.780;17.194;2023-05-10T05:29:52;6.38;;;4.63;;
34876;SDS011;21086;44.780;17.194;2023-05-10T05:32:20;5.53;;;4.32;;
34876;SDS011;21086;44.780;17.194;2023-05-10T05:34:48;5.97;;;4.75;;
34876;SDS011;21086;44.780;17.194;2023-05-10T05:37:15;9.85;;;4.95;;
34876;SDS011;21086;44.780;17.194;2023-05-10T05:39:47;7.43;;;4.93;;
34876;SDS011;21086;44.780;17.194;2023-05-10T05:42:14;6.00;;;4.65;;
34876;SDS011;21086;44.780;17.194;2023-05-10T05:44:43;5.25;;;4.18;;
34876;SDS011;21086;44.780;17.194;2023-05-10T05:47:11;5.97;;;4.80;;
34876;SDS011;21086;44.780;17.194;2023-05-10T05:49:37;4.22;;;3.72;;
34876;SDS011;21086;44.780;17.194;2023-05-10T05:52:05;5.50;;;4.40;;
34876;SDS011;21086;44.780;17.194;2023-05-10T05:54:32;6.38;;;3.88;;
34876;SDS011;21086;44.780;17.194;2023-05-10T05:56:59;5.97;;;4.18;;
34876;SDS011;21086;44.780;17.194;2023-05-10T05:59:27;8.45;;;4.78;;
34876;SDS011;21086;44.780;17.194;2023-05-10T06:01:54;5.55;;;4.55;;
34876;SDS011;21086;44.780;17.194;2023-05-10T06:04:21;5.93;;;3.92;;
34876;SDS011;21086;44.780;17.194;2023-05-10T06:06:48;5.75;;;4.78;;
34876;SDS011;21086;44.780;17.194;2023-05-10T06:09:15;6.47;;;4.53;;
34876;SDS011;21086;44.780;17.194;2023-05-10T06:11:42;7.47;;;5.18;;
34876;SDS011;21086;44.780;17.194;2023-05-10T06:14:09;7.18;;;4.50;;
34876;SDS011;21086;44.780;17.194;2023-05-10T06:16:36;8.10;;;4.65;;
34876;SDS011;21086;44.780;17.194;2023-05-10T06:19:03;5.40;;;4.60;;
34876;SDS011;21086;44.780;17.194;2023-05-10T06:21:31;5.78;;;4.53;;
34876;SDS011;21086;44.780;17.194;2023-05-10T06:23:57;6.20;;;4.38;;
34876;SDS011;21086;44.780;17.194;2023-05-10T06:26:24;8.20;;;4.70;;
34876;SDS011;21086;44.780;17.194;2023-05-10T06:28:52;7.25;;;4.80;;
34876;SDS011;21086;44.780;17.194;2023-05-10T06:31:18;6.43;;;4.95;;
34876;SDS011;21086;44.780;17.194;2023-05-10T06:33:46;5.72;;;5.10;;
34876;SDS011;21086;44.780;17.194;2023-05-10T06:36:13;6.43;;;4.68;;
34876;SDS011;21086;44.780;17.194;2023-05-10T06:38:40;5.43;;;4.53;;
34876;SDS011;21086;44.780;17.194;2023-05-10T06:41:07;5.90;;;4.80;;
34876;SDS011;21086;44.780;17.194;2023-05-10T06:43:34;6.80;;;5.28;;
34876;SDS011;21086;44.780;17.194;2023-05-10T06:46:01;6.85;;;5.47;;
34876;SDS011;21086;44.780;17.194;2023-05-10T06:48:28;5.22;;;4.72;;
34876;SDS011;21086;44.780;17.194;2023-05-10T06:50:55;5.68;;;5.07;;
34876;SDS011;21086;44.780;17.194;2023-05-10T06:53:22;6.82;;;4.70;;
34876;SDS011;21086;44.780;17.194;2023-05-10T06:55:49;6.55;;;4.25;;
34876;SDS011;21086;44.780;17.194;2023-05-10T06:58:16;5.40;;;4.90;;
34876;SDS011;21086;44.780;17.194;2023-05-10T07:00:43;5.32;;;4.82;;
34876;SDS011;21086;44.780;17.194;2023-05-10T07:03:12;6.75;;;4.72;;
34876;SDS011;21086;44.780;17.194;2023-05-10T07:05:39;6.43;;;5.82;;
34876;SDS011;21086;44.780;17.194;2023-05-10T07:08:06;5.75;;;5.25;;
34876;SDS011;21086;44.780;17.194;2023-05-10T07:10:33;6.05;;;5.45;;
34876;SDS011;21086;44.780;17.194;2023-05-10T07:13:00;5.28;;;4.78;;
34876;SDS011;21086;44.780;17.194;2023-05-10T07:15:27;8.88;;;6.05;;
34876;SDS011;21086;44.780;17.194;2023-05-10T07:17:54;6.78;;;5.43;;
34876;SDS011;21086;44.780;17.194;2023-05-10T07:20:22;5.97;;;5.38;;
34876;SDS011;21086;44.780;17.194;2023-05-10T07:22:49;6.32;;;5.13;;
34876;SDS011;21086;44.780;17.194;2023-05-10T07:25:16;7.38;;;5.47;;
34876;SDS011;21086;44.780;17.194;2023-05-10T07:27:43;5.53;;;5.00;;
34876;SDS011;21086;44.780;17.194;2023-05-10T07:30:10;5.95;;;5.32;;
34876;SDS011;21086;44.780;17.194;2023-05-10T07:32:37;6.75;;;4.90;;
34876;SDS011;21086;44.780;17.194;2023-05-10T07:35:05;6.70;;;5.40;;
34876;SDS011;21086;44.780;17.194;2023-05-10T07:37:33;5.18;;;4.68;;
34876;SDS011;21086;44.780;17.194;2023-05-10T07:40:00;7.00;;;5.10;;
34876;SDS011;21086;44.780;17.194;2023-05-10T07:42:27;6.32;;;5.53;;
34876;SDS011;21086;44.780;17.194;2023-05-10T07:44:54;8.07;;;5.43;;
34876;SDS011;21086;44.780;17.194;2023-05-10T07:47:21;6.53;;;5.20;;
34876;SDS011;21086;44.780;17.194;2023-05-10T07:49:48;6.53;;;5.50;;
34876;SDS011;21086;44.780;17.194;2023-05-10T07:52:15;5.97;;;5.40;;
34876;SDS011;21086;44.780;17.194;2023-05-10T07:54:42;6.45;;;5.82;;
34876;SDS011;21086;44.780;17.194;2023-05-10T07:57:09;6.40;;;5.75;;
34876;SDS011;21086;44.780;17.194;2023-05-10T07:59:36;7.07;;;5.97;;
34876;SDS011;21086;44.780;17.194;2023-05-10T08:02:03;11.55;;;6.15;;
34876;SDS011;21086;44.780;17.194;2023-05-10T08:04:30;9.02;;;5.20;;
34876;SDS011;21086;44.780;17.194;2023-05-10T08:06:57;7.80;;;6.68;;
34876;SDS011;21086;44.780;17.194;2023-05-10T08:09:24;7.05;;;6.22;;
34876;SDS011;21086;44.780;17.194;2023-05-10T08:11:51;11.23;;;6.60;;
34876;SDS011;21086;44.780;17.194;2023-05-10T08:14:18;5.47;;;4.97;;
34876;SDS011;21086;44.780;17.194;2023-05-10T08:16:46;6.25;;;5.65;;
34876;SDS011;21086;44.780;17.194;2023-05-10T08:19:13;8.65;;;5.15;;
34876;SDS011;21086;44.780;17.194;2023-05-10T08:21:45;6.13;;;5.45;;
34876;SDS011;21086;44.780;17.194;2023-05-10T08:24:12;8.13;;;6.00;;
34876;SDS011;21086;44.780;17.194;2023-05-10T08:26:39;6.25;;;5.70;;
34876;SDS011;21086;44.780;17.194;2023-05-10T08:29:06;6.60;;;5.88;;
34876;SDS011;21086;44.780;17.194;2023-05-10T08:31:33;6.50;;;5.90;;
34876;SDS011;21086;44.780;17.194;2023-05-10T08:34:00;7.60;;;5.53;;
34876;SDS011;21086;44.780;17.194;2023-05-10T08:36:27;6.35;;;5.75;;
34876;SDS011;21086;44.780;17.194;2023-05-10T08:38:54;9.18;;;7.07;;
34876;SDS011;21086;44.780;17.194;2023-05-10T08:41:21;7.18;;;5.65;;
34876;SDS011;21086;44.780;17.194;2023-05-10T08:43:51;7.55;;;6.28;;
34876;SDS011;21086;44.780;17.194;2023-05-10T08:46:19;6.70;;;6.10;;
34876;SDS011;21086;44.780;17.194;2023-05-10T08:48:48;5.53;;;5.03;;
34876;SDS011;21086;44.780;17.194;2023-05-10T08:51:17;6.32;;;5.80;;
34876;SDS011;21086;44.780;17.194;2023-05-10T08:53:46;6.88;;;6.03;;
34876;SDS011;21086;44.780;17.194;2023-05-10T08:56:15;5.63;;;5.00;;
34876;SDS011;21086;44.780;17.194;2023-05-10T08:58:42;6.60;;;5.93;;
34876;SDS011;21086;44.780;17.194;2023-05-10T09:01:09;8.85;;;6.05;;
34876;SDS011;21086;44.780;17.194;2023-05-10T09:03:39;6.05;;;5.45;;
34876;SDS011;21086;44.780;17.194;2023-05-10T09:06:06;8.93;;;5.90;;
34876;SDS011;21086;44.780;17.194;2023-05-10T09:08:34;6.90;;;5.40;;
34876;SDS011;21086;44.780;17.194;2023-05-10T09:11:03;6.03;;;5.47;;
34876;SDS011;21086;44.780;17.194;2023-05-10T09:13:31;6.72;;;5.15;;
34876;SDS011;21086;44.780;17.194;2023-05-10T09:15:59;5.60;;;5.10;;
34876;SDS011;21086;44.780;17.194;2023-05-10T09:18:39;6.65;;;5.65;;
34876;SDS011;21086;44.780;17.194;2023-05-10T09:21:06;4.90;;;4.18;;
34876;SDS011;21086;44.780;17.194;2023-05-10T09:23:33;6.65;;;6.05;;
34876;SDS011;21086;44.780;17.194;2023-05-10T09:26:07;7.65;;;5.50;;
34876;SDS011;21086;44.780;17.194;2023-05-10T09:28:34;6.95;;;5.85;;
34876;SDS011;21086;44.780;17.194;2023-05-10T09:31:20;7.85;;;5.80;;
34876;SDS011;21086;44.780;17.194;2023-05-10T09:33:51;12.23;;;5.70;;
34876;SDS011;21086;44.780;17.194;2023-05-10T09:36:19;6.43;;;5.82;;
34876;SDS011;21086;44.780;17.194;2023-05-10T09:38:47;6.40;;;5.70;;
34876;SDS011;21086;44.780;17.194;2023-05-10T09:41:19;8.90;;;5.15;;
34876;SDS011;21086;44.780;17.194;2023-05-10T09:43:48;7.57;;;5.10;;
34876;SDS011;21086;44.780;17.194;2023-05-10T09:46:15;6.38;;;4.85;;
34876;SDS011;21086;44.780;17.194;2023-05-10T09:48:45;11.23;;;7.40;;
34876;SDS011;21086;44.780;17.194;2023-05-10T09:51:23;8.60;;;6.63;;
34876;SDS011;21086;44.780;17.194;2023-05-10T09:54:12;5.25;;;4.68;;
34876;SDS011;21086;44.780;17.194;2023-05-10T09:56:41;8.25;;;5.53;;
34876;SDS011;21086;44.780;17.194;2023-05-10T09:59:11;7.20;;;5.32;;
34876;SDS011;21086;44.780;17.194;2023-05-10T10:01:39;6.32;;;5.18;;
34876;SDS011;21086;44.780;17.194;2023-05-10T10:04:08;5.43;;;4.93;;
34876;SDS011;21086;44.780;17.194;2023-05-10T10:06:36;5.18;;;4.65;;
34876;SDS011;21086;44.780;17.194;2023-05-10T10:09:07;6.25;;;5.22;;
34876;SDS011;21086;44.780;17.194;2023-05-10T10:11:36;5.45;;;4.90;;
34876;SDS011;21086;44.780;17.194;2023-05-10T10:14:04;5.70;;;5.07;;
34876;SDS011;21086;44.780;17.194;2023-05-10T10:16:32;6.30;;;4.90;;
34876;SDS011;21086;44.780;17.194;2023-05-10T10:18:59;6.22;;;4.72;;
34876;SDS011;21086;44.780;17.194;2023-05-10T10:21:27;5.57;;;4.20;;
34876;SDS011;21086;44.780;17.194;2023-05-10T10:23:55;7.38;;;4.72;;
34876;SDS011;21086;44.780;17.194;2023-05-10T10:26:22;5.35;;;4.85;;
34876;SDS011;21086;44.780;17.194;2023-05-10T10:31:36;5.75;;;4.78;;
34876;SDS011;21086;44.780;17.194;2023-05-10T10:34:06;5.30;;;4.60;;
34876;SDS011;21086;44.780;17.194;2023-05-10T10:36:39;5.00;;;4.20;;
34876;SDS011;21086;44.780;17.194;2023-05-10T10:39:11;5.35;;;4.85;;
34876;SDS011;21086;44.780;17.194;2023-05-10T10:41:39;5.28;;;4.78;;
34876;SDS011;21086;44.780;17.194;2023-05-10T10:46:58;5.10;;;4.60;;
34876;SDS011;21086;44.780;17.194;2023-05-10T10:50:13;8.35;;;5.30;;
34876;SDS011;21086;44.780;17.194;2023-05-10T10:52:39;5.35;;;4.78;;
34876;SDS011;21086;44.780;17.194;2023-05-10T11:02:53;6.18;;;5.43;;
34876;SDS011;21086;44.780;17.194;2023-05-10T11:08:19;6.68;;;5.18;;
34876;SDS011;21086;44.780;17.194;2023-05-10T11:13:27;6.80;;;5.60;;
34876;SDS011;21086;44.780;17.194;2023-05-10T11:15:55;6.28;;;5.05;;
34876;SDS011;21086;44.780;17.194;2023-05-10T11:20:57;6.05;;;4.75;;
34876;SDS011;21086;44.780;17.194;2023-05-10T11:23:48;6.88;;;5.40;;
34876;SDS011;21086;44.780;17.194;2023-05-10T11:26:15;6.72;;;5.15;;
34876;SDS011;21086;44.780;17.194;2023-05-10T11:28:43;6.38;;;5.18;;
34876;SDS011;21086;44.780;17.194;2023-05-10T11:31:15;7.45;;;5.20;;
34876;SDS011;21086;44.780;17.194;2023-05-10T11:33:43;7.68;;;5.50;;
34876;SDS011;21086;44.780;17.194;2023-05-10T11:36:18;7.50;;;5.63;;
34876;SDS011;21086;44.780;17.194;2023-05-10T11:38:49;8.43;;;5.47;;
34876;SDS011;21086;44.780;17.194;2023-05-10T11:41:17;8.55;;;5.55;;
34876;SDS011;21086;44.780;17.194;2023-05-10T11:43:51;7.28;;;5.70;;
34876;SDS011;21086;44.780;17.194;2023-05-10T11:46:21;8.65;;;5.43;;
34876;SDS011;21086;44.780;17.194;2023-05-10T11:48:55;6.18;;;5.57;;
34876;SDS011;21086;44.780;17.194;2023-05-10T11:51:24;6.15;;;5.55;;
34876;SDS011;21086;44.780;17.194;2023-05-10T11:53:55;8.18;;;5.85;;
34876;SDS011;21086;44.780;17.194;2023-05-10T11:56:22;6.43;;;5.82;;
34876;SDS011;21086;44.780;17.194;2023-05-10T11:58:54;9.38;;;6.32;;
34876;SDS011;21086;44.780;17.194;2023-05-10T12:01:23;6.93;;;6.05;;
34876;SDS011;21086;44.780;17.194;2023-05-10T12:03:52;6.05;;;5.45;;
34876;SDS011;21086;44.780;17.194;2023-05-10T12:06:21;6.38;;;5.78;;
34876;SDS011;21086;44.780;17.194;2023-05-10T12:08:49;7.30;;;5.43;;
34876;SDS011;21086;44.780;17.194;2023-05-10T12:11:20;6.03;;;5.43;;
34876;SDS011;21086;44.780;17.194;2023-05-10T12:13:51;10.68;;;6.53;;
34876;SDS011;21086;44.780;17.194;2023-05-10T12:16:22;7.05;;;5.90;;
34876;SDS011;21086;44.780;17.194;2023-05-10T12:18:51;7.50;;;6.60;;
34876;SDS011;21086;44.780;17.194;2023-05-10T12:21:20;8.43;;;7.28;;
34876;SDS011;21086;44.780;17.194;2023-05-10T12:23:52;7.07;;;6.40;;
34876;SDS011;21086;44.780;17.194;2023-05-10T12:26:27;8.82;;;7.78;;
34876;SDS011;21086;44.780;17.194;2023-05-10T12:29:01;8.15;;;6.97;;
34876;SDS011;21086;44.780;17.194;2023-05-10T12:31:53;6.70;;;5.95;;
34876;SDS011;21086;44.780;17.194;2023-05-10T12:34:32;7.60;;;6.90;;
34876;SDS011;21086;44.780;17.194;2023-05-10T12:37:00;7.70;;;7.00;;
34876;SDS011;21086;44.780;17.194;2023-05-10T12:39:41;8.55;;;7.72;;
34876;SDS011;21086;44.780;17.194;2023-05-10T12:42:12;9.07;;;8.18;;
34876;SDS011;21086;44.780;17.194;2023-05-10T12:44:39;10.02;;;8.00;;
34876;SDS011;21086;44.780;17.194;2023-05-10T12:47:06;7.88;;;7.15;;
34876;SDS011;21086;44.780;17.194;2023-05-10T12:49:33;9.30;;;7.68;;
34876;SDS011;21086;44.780;17.194;2023-05-10T12:52:01;9.63;;;7.50;;
34876;SDS011;21086;44.780;17.194;2023-05-10T12:54:28;8.85;;;7.50;;
34876;SDS011;21086;44.780;17.194;2023-05-10T12:56:56;8.73;;;7.90;;
34876;SDS011;21086;44.780;17.194;2023-05-10T12:59:22;8.98;;;7.78;;
34876;SDS011;21086;44.780;17.194;2023-05-10T13:01:50;8.23;;;7.43;;
34876;SDS011;21086;44.780;17.194;2023-05-10T13:04:18;8.52;;;7.68;;
34876;SDS011;21086;44.780;17.194;2023-05-10T13:06:45;12.40;;;8.75;;
34876;SDS011;21086;44.780;17.194;2023-05-10T13:09:11;8.80;;;7.38;;
34876;SDS011;21086;44.780;17.194;2023-05-10T13:11:39;13.18;;;11.60;;
34876;SDS011;21086;44.780;17.194;2023-05-10T13:14:06;8.73;;;7.78;;
34876;SDS011;21086;44.780;17.194;2023-05-10T13:16:33;9.23;;;8.43;;
34876;SDS011;21086;44.780;17.194;2023-05-10T13:19:00;12.88;;;11.30;;
34876;SDS011;21086;44.780;17.194;2023-05-10T13:21:28;16.45;;;14.48;;
34876;SDS011;21086;44.780;17.194;2023-05-10T13:23:54;19.95;;;16.40;;
34876;SDS011;21086;44.780;17.194;2023-05-10T13:26:21;12.50;;;10.88;;
34876;SDS011;21086;44.780;17.194;2023-05-10T13:28:49;13.32;;;11.93;;
34876;SDS011;21086;44.780;17.194;2023-05-10T13:31:18;10.35;;;9.02;;
34876;SDS011;21086;44.780;17.194;2023-05-10T13:33:45;7.75;;;6.97;;
34876;SDS011;21086;44.780;17.194;2023-05-10T13:36:12;8.32;;;7.53;;
34876;SDS011;21086;44.780;17.194;2023-05-10T13:38:39;8.30;;;7.50;;
34876;SDS011;21086;44.780;17.194;2023-05-10T13:41:06;8.13;;;7.28;;
34876;SDS011;21086;44.780;17.194;2023-05-10T13:43:33;10.38;;;9.38;;
34876;SDS011;21086;44.780;17.194;2023-05-10T13:46:00;10.15;;;9.13;;
34876;SDS011;21086;44.780;17.194;2023-05-10T13:48:27;19.00;;;15.55;;
34876;SDS011;21086;44.780;17.194;2023-05-10T13:50:55;18.90;;;16.90;;
34876;SDS011;21086;44.780;17.194;2023-05-10T13:53:22;9.57;;;8.57;;
34876;SDS011;21086;44.780;17.194;2023-05-10T13:55:49;10.80;;;8.93;;
34876;SDS011;21086;44.780;17.194;2023-05-10T13:58:16;34.80;;;29.83;;
34876;SDS011;21086;44.780;17.194;2023-05-10T14:00:43;67.00;;;51.33;;
34876;SDS011;21086;44.780;17.194;2023-05-10T14:03:10;26.83;;;23.83;;
34876;SDS011;21086;44.780;17.194;2023-05-10T14:05:37;16.45;;;14.85;;
34876;SDS011;21086;44.780;17.194;2023-05-10T14:08:04;9.70;;;8.82;;
34876;SDS011;21086;44.780;17.194;2023-05-10T14:10:31;8.45;;;7.57;;
34876;SDS011;21086;44.780;17.194;2023-05-10T14:12:59;7.55;;;6.85;;
34876;SDS011;21086;44.780;17.194;2023-05-10T14:15:26;7.40;;;6.70;;
34876;SDS011;21086;44.780;17.194;2023-05-10T14:17:52;7.72;;;6.70;;
34876;SDS011;21086;44.780;17.194;2023-05-10T14:20:20;9.00;;;8.10;;
34876;SDS011;21086;44.780;17.194;2023-05-10T14:22:47;8.35;;;7.43;;
34876;SDS011;21086;44.780;17.194;2023-05-10T14:25:14;8.95;;;8.02;;
34876;SDS011;21086;44.780;17.194;2023-05-10T14:27:41;8.55;;;7.75;;
34876;SDS011;21086;44.780;17.194;2023-05-10T14:30:09;8.45;;;7.40;;
34876;SDS011;21086;44.780;17.194;2023-05-10T14:32:36;9.85;;;8.65;;
34876;SDS011;21086;44.780;17.194;2023-05-10T14:35:04;9.50;;;8.57;;
34876;SDS011;21086;44.780;17.194;2023-05-10T14:37:32;15.63;;;14.15;;
34876;SDS011;21086;44.780;17.194;2023-05-10T14:39:59;9.32;;;8.43;;
34876;SDS011;21086;44.780;17.194;2023-05-10T14:42:27;11.00;;;9.75;;
34876;SDS011;21086;44.780;17.194;2023-05-10T14:44:55;9.20;;;8.30;;
34876;SDS011;21086;44.780;17.194;2023-05-10T14:47:22;8.93;;;8.13;;
34876;SDS011;21086;44.780;17.194;2023-05-10T14:49:49;10.23;;;8.85;;
34876;SDS011;21086;44.780;17.194;2023-05-10T14:52:16;10.38;;;9.20;;
34876;SDS011;21086;44.780;17.194;2023-05-10T14:54:43;8.90;;;8.10;;
34876;SDS011;21086;44.780;17.194;2023-05-10T14:57:10;17.90;;;8.45;;
34876;SDS011;21086;44.780;17.194;2023-05-10T14:59:37;10.13;;;8.70;;
34876;SDS011;21086;44.780;17.194;2023-05-10T15:02:07;9.25;;;8.25;;
34876;SDS011;21086;44.780;17.194;2023-05-10T15:04:34;10.60;;;9.50;;
34876;SDS011;21086;44.780;17.194;2023-05-10T15:07:02;9.60;;;8.75;;
34876;SDS011;21086;44.780;17.194;2023-05-10T15:09:29;9.18;;;8.05;;
34876;SDS011;21086;44.780;17.194;2023-05-10T15:11:56;9.52;;;8.63;;
34876;SDS011;21086;44.780;17.194;2023-05-10T15:14:23;9.07;;;8.27;;
34876;SDS011;21086;44.780;17.194;2023-05-10T15:16:50;8.55;;;7.72;;
34876;SDS011;21086;44.780;17.194;2023-05-10T15:19:17;7.70;;;6.95;;
34876;SDS011;21086;44.780;17.194;2023-05-10T15:21:45;8.50;;;7.53;;